Time;durP1;ratioP1;P1;durP2;ratioP2;P2;SDS_P1;SDS_P2;PMS_P1;PMS_P2;Temp;Humidity;BMP_temperature;BMP_pressure;BME280_temperature;BME280_humidity;BME280_pressure;Samples;Min_cycle;Max_cycle;Signal;HPM_P1;HPM_P2
2020/12/22 00:01:42;;;;;;;17.73;9.57;;;6.50;99.90;;;;;;5001960;28;20570;-55
2020/12/22 00:04:10;;;;;;;19.80;9.00;;;6.40;99.90;;;;;;5006082;28;20434;-55
2020/12/22 00:06:36;;;;;;;16.17;9.53;;;6.40;99.90;;;;;;5010497;28;20458;-52
2020/12/22 00:09:03;;;;;;;17.33;10.80;;;6.40;99.90;;;;;;5003442;28;20545;-52
2020/12/22 00:11:31;;;;;;;18.97;10.70;;;6.40;99.90;;;;;;5007558;28;20478;-54
2020/12/22 00:13:58;;;;;;;23.87;11.97;;;6.40;99.90;;;;;;5010519;28;20488;-51
2020/12/22 00:16:24;;;;;;;17.13;11.13;;;6.40;99.90;;;;;;5000643;28;20490;-54
2020/12/22 00:18:50;;;;;;;17.67;11.20;;;6.40;99.90;;;;;;4999698;28;20463;-53
2020/12/22 00:21:20;;;;;;;18.37;11.00;;;6.40;99.90;;;;;;5009862;28;20465;-54
2020/12/22 00:23:47;;;;;;;21.63;11.70;;;6.30;99.90;;;;;;5008376;28;20457;-52
2020/12/22 00:26:17;;;;;;;21.00;11.23;;;6.30;99.90;;;;;;4987278;28;20443;-55
2020/12/22 00:28:44;;;;;;;18.17;9.90;;;6.40;99.90;;;;;;4985764;28;20434;-57
2020/12/22 00:31:10;;;;;;;15.97;9.60;;;6.40;99.90;;;;;;4987158;28;20474;-53
2020/12/22 00:33:36;;;;;;;17.60;10.30;;;6.40;99.90;;;;;;4986516;28;20533;-55
2020/12/22 00:36:06;;;;;;;17.30;10.27;;;6.40;99.90;;;;;;4985099;28;20442;-56
2020/12/22 00:38:33;;;;;;;22.03;11.87;;;6.40;99.90;;;;;;4986234;28;20772;-55
2020/12/22 00:40:59;;;;;;;17.70;10.57;;;6.40;99.90;;;;;;4985739;28;20549;-48
2020/12/22 00:43:27;;;;;;;22.63;11.03;;;6.40;99.90;;;;;;4987240;28;20481;-55
2020/12/22 00:45:53;;;;;;;15.70;9.07;;;6.50;99.90;;;;;;4985472;28;20538;-50
2020/12/22 00:48:19;;;;;;;18.20;10.20;;;6.50;99.90;;;;;;4985681;28;20460;-52
2020/12/22 00:50:46;;;;;;;16.50;10.53;;;6.50;99.90;;;;;;4995845;28;20581;-52
2020/12/22 00:53:12;;;;;;;19.07;11.70;;;6.50;99.90;;;;;;4995293;28;20557;-55
2020/12/22 00:55:39;;;;;;;17.10;11.00;;;6.50;99.90;;;;;;4996076;28;20489;-55
2020/12/22 00:58:05;;;;;;;19.10;11.40;;;6.50;99.90;;;;;;4996002;28;20524;-55
2020/12/22 01:00:33;;;;;;;18.63;11.17;;;6.50;99.90;;;;;;4995511;28;20939;-51
2020/12/22 01:02:59;;;;;;;17.57;10.87;;;6.50;99.90;;;;;;4996084;28;20458;-52
2020/12/22 01:05:25;;;;;;;24.10;10.63;;;6.50;99.90;;;;;;4995966;28;20442;-56
2020/12/22 01:07:52;;;;;;;18.43;10.87;;;6.60;99.90;;;;;;4995804;28;20493;-48
2020/12/22 01:10:18;;;;;;;13.33;8.73;;;6.60;99.90;;;;;;4995613;28;20477;-49
2020/12/22 01:12:44;;;;;;;17.90;10.70;;;6.60;99.90;;;;;;4995865;28;20539;-54
2020/12/22 01:15:11;;;;;;;19.00;11.33;;;6.60;99.90;;;;;;4995799;28;20477;-54
2020/12/22 01:17:38;;;;;;;18.77;10.07;;;6.60;99.90;;;;;;4995611;28;20520;-52
2020/12/22 01:20:04;;;;;;;16.63;9.77;;;6.60;99.90;;;;;;4995480;28;20963;-51
2020/12/22 01:22:31;;;;;;;16.37;10.30;;;6.70;99.90;;;;;;4995111;28;20600;-56
2020/12/22 01:24:57;;;;;;;18.87;11.80;;;6.70;99.90;;;;;;4995330;28;20481;-55
2020/12/22 01:27:23;;;;;;;17.20;10.10;;;6.70;99.90;;;;;;4995368;28;20532;-55
2020/12/22 01:29:50;;;;;;;16.90;9.60;;;6.70;99.90;;;;;;4995408;28;20874;-50
2020/12/22 01:32:16;;;;;;;19.47;11.13;;;6.80;99.90;;;;;;4995303;28;20481;-51
2020/12/22 01:34:43;;;;;;;21.80;11.27;;;6.80;99.90;;;;;;4995299;28;20573;-56
2020/12/22 01:37:13;;;;;;;16.53;10.10;;;6.80;99.90;;;;;;4995193;28;20534;-54
2020/12/22 01:39:39;;;;;;;17.50;11.03;;;6.80;99.90;;;;;;4995131;28;20462;-48
2020/12/22 01:42:10;;;;;;;15.53;10.70;;;6.80;99.90;;;;;;4995103;28;20442;-50
2020/12/22 01:44:37;;;;;;;17.63;10.30;;;6.90;99.90;;;;;;4994788;28;20458;-50
2020/12/22 01:47:03;;;;;;;16.90;10.77;;;6.90;99.90;;;;;;4995173;28;20528;-53
2020/12/22 01:49:31;;;;;;;15.63;10.67;;;6.90;99.90;;;;;;4995261;28;20989;-54
2020/12/22 01:51:59;;;;;;;19.00;12.47;;;6.90;99.90;;;;;;4994946;28;20918;-52
2020/12/22 01:54:26;;;;;;;20.20;11.07;;;6.80;99.90;;;;;;4995029;28;20492;-55
2020/12/22 01:56:54;;;;;;;22.70;11.57;;;6.90;99.90;;;;;;4995309;28;20470;-54
2020/12/22 01:59:21;;;;;;;19.73;12.07;;;7.00;99.90;;;;;;4995054;28;20541;-53
2020/12/22 02:01:49;;;;;;;19.33;10.60;;;6.90;99.90;;;;;;4995172;28;20489;-53
2020/12/22 02:04:15;;;;;;;17.33;10.47;;;7.00;99.90;;;;;;4994634;28;20921;-57
2020/12/22 02:06:42;;;;;;;22.00;11.07;;;7.00;99.90;;;;;;4994805;28;20458;-54
2020/12/22 02:09:11;;;;;;;20.77;11.50;;;7.10;99.90;;;;;;4995091;28;20468;-55
2020/12/22 02:11:39;;;;;;;17.70;10.43;;;7.10;99.90;;;;;;4994922;28;20536;-51
2020/12/22 02:14:07;;;;;;;22.03;11.93;;;7.20;99.90;;;;;;4995040;28;20564;-55
2020/12/22 02:16:33;;;;;;;16.77;9.80;;;7.30;99.90;;;;;;4994795;28;20541;-54
2020/12/22 02:18:59;;;;;;;16.67;11.17;;;7.30;99.90;;;;;;4994698;28;20545;-54
2020/12/22 02:21:27;;;;;;;17.80;10.87;;;7.30;99.90;;;;;;4994946;28;20482;-54
2020/12/22 02:23:53;;;;;;;16.07;9.17;;;7.30;99.90;;;;;;4994887;28;20458;-49
2020/12/22 02:26:20;;;;;;;21.63;11.27;;;7.20;99.90;;;;;;4995004;28;20456;-54
2020/12/22 02:28:47;;;;;;;21.23;11.70;;;7.20;99.90;;;;;;4994313;28;20853;-51
2020/12/22 02:31:13;;;;;;;16.10;10.20;;;7.20;99.90;;;;;;4994604;28;20473;-57
2020/12/22 02:33:40;;;;;;;18.13;10.50;;;7.10;99.90;;;;;;4994598;28;20456;-57
2020/12/22 02:36:10;;;;;;;19.03;10.87;;;7.10;99.90;;;;;;4994728;28;20543;-57
2020/12/22 02:38:37;;;;;;;18.77;11.63;;;7.10;99.90;;;;;;4994837;28;20519;-55
2020/12/22 02:41:04;;;;;;;20.83;12.07;;;7.20;99.90;;;;;;4994696;28;20476;-57
2020/12/22 02:43:31;;;;;;;17.80;10.60;;;7.10;99.90;;;;;;4994781;28;20536;-56
2020/12/22 02:45:58;;;;;;;17.53;10.57;;;7.10;99.90;;;;;;4994416;28;20454;-56
2020/12/22 02:48:24;;;;;;;22.30;13.73;;;7.10;99.90;;;;;;4994664;28;20450;-56
2020/12/22 02:50:51;;;;;;;16.40;9.90;;;7.10;99.90;;;;;;4994722;28;20449;-57
2020/12/22 02:53:17;;;;;;;17.07;10.27;;;7.00;99.90;;;;;;4994217;28;20855;-56
2020/12/22 02:55:44;;;;;;;23.10;13.90;;;7.10;99.90;;;;;;4994329;28;20482;-61
2020/12/22 02:58:11;;;;;;;20.97;10.37;;;7.10;99.90;;;;;;4994684;28;20508;-56
2020/12/22 03:00:38;;;;;;;21.33;12.63;;;7.10;99.90;;;;;;4994587;28;20553;-53
2020/12/22 03:03:04;;;;;;;22.17;12.60;;;7.00;99.90;;;;;;4994678;28;20538;-54
2020/12/22 03:05:31;;;;;;;19.90;10.30;;;7.00;99.90;;;;;;4994473;28;20530;-51
2020/12/22 03:07:58;;;;;;;19.03;12.10;;;7.00;99.90;;;;;;4995465;28;20536;-53
2020/12/22 03:10:24;;;;;;;24.30;12.80;;;7.10;99.90;;;;;;4994395;28;20456;-55
2020/12/22 03:12:52;;;;;;;18.30;11.53;;;7.10;99.90;;;;;;4994279;28;20454;-56
2020/12/22 03:15:19;;;;;;;19.20;12.20;;;7.20;99.90;;;;;;4993838;28;20572;-56
2020/12/22 03:17:45;;;;;;;18.87;11.53;;;7.20;99.90;;;;;;4996665;28;20540;-49
2020/12/22 03:20:13;;;;;;;21.70;10.67;;;7.10;99.90;;;;;;4998112;28;20541;-54
2020/12/22 03:22:41;;;;;;;18.63;10.70;;;7.10;99.90;;;;;;4997806;28;20496;-56
2020/12/22 03:25:09;;;;;;;19.27;11.20;;;7.10;99.90;;;;;;4997573;28;20973;-57
2020/12/22 03:27:35;;;;;;;20.80;12.10;;;7.10;99.90;;;;;;4997629;28;20525;-57
2020/12/22 03:30:04;;;;;;;19.07;12.00;;;7.10;99.90;;;;;;4997769;28;20478;-55
2020/12/22 03:32:30;;;;;;;18.67;11.67;;;7.00;99.90;;;;;;4997448;28;20565;-55
2020/12/22 03:34:57;;;;;;;25.40;12.07;;;7.00;99.90;;;;;;4998631;28;20583;-56
2020/12/22 03:37:23;;;;;;;21.13;11.50;;;7.00;99.90;;;;;;4997611;28;20998;-53
2020/12/22 03:39:51;;;;;;;19.67;12.20;;;7.10;99.90;;;;;;4997460;28;20540;-54
2020/12/22 03:42:18;;;;;;;20.73;11.70;;;7.10;99.90;;;;;;4997388;28;20921;-58
2020/12/22 03:44:46;;;;;;;17.73;10.90;;;7.00;99.90;;;;;;4997515;28;20449;-52
2020/12/22 03:47:13;;;;;;;18.47;10.33;;;7.10;99.90;;;;;;4997491;28;20488;-58
2020/12/22 03:49:40;;;;;;;22.13;13.07;;;7.10;99.90;;;;;;4997268;28;20541;-58
2020/12/22 03:54:32;;;;;;;17.73;10.63;;;7.10;99.90;;;;;;5016884;23;20494;-55
2020/12/22 03:56:59;;;;;;;19.93;12.23;;;7.10;99.90;;;;;;4997092;28;20235;-56
2020/12/22 03:59:25;;;;;;;21.43;13.50;;;7.10;99.90;;;;;;4996990;28;20462;-56
2020/12/22 04:01:52;;;;;;;22.20;12.13;;;7.10;99.90;;;;;;4996940;28;20449;-57
2020/12/22 04:04:21;;;;;;;21.70;10.80;;;7.10;99.90;;;;;;4997077;28;21100;-58
2020/12/22 04:06:48;;;;;;;19.50;11.33;;;7.10;99.90;;;;;;4997191;28;20545;-55
2020/12/22 04:09:15;;;;;;;20.60;12.33;;;7.10;99.90;;;;;;4996961;28;20537;-58
2020/12/22 04:11:41;;;;;;;20.90;11.80;;;7.20;99.90;;;;;;4996759;28;20450;-54
2020/12/22 04:14:08;;;;;;;22.07;11.77;;;7.10;99.90;;;;;;4997048;28;20540;-57
2020/12/22 04:16:35;;;;;;;27.20;13.00;;;7.10;99.90;;;;;;4996642;28;20877;-59
2020/12/22 04:19:01;;;;;;;21.80;11.13;;;7.10;99.90;;;;;;4996949;28;20456;-60
2020/12/22 04:21:30;;;;;;;20.20;11.57;;;7.10;99.90;;;;;;4996367;28;21087;-61
2020/12/22 04:23:57;;;;;;;20.30;10.40;;;7.20;99.90;;;;;;4996809;28;20529;-57
2020/12/22 04:26:23;;;;;;;21.20;11.73;;;7.10;99.90;;;;;;4996496;28;20446;-56
2020/12/22 04:28:50;;;;;;;18.70;10.33;;;7.10;99.90;;;;;;4996615;28;20446;-59
2020/12/22 04:31:16;;;;;;;19.57;12.23;;;7.20;99.90;;;;;;4996326;28;20552;-53
2020/12/22 04:33:43;;;;;;;22.60;10.90;;;7.20;99.90;;;;;;4996398;28;20533;-61
2020/12/22 04:36:09;;;;;;;19.90;11.77;;;7.10;99.90;;;;;;4996575;28;20572;-60
2020/12/22 04:38:37;;;;;;;19.07;12.07;;;7.20;99.90;;;;;;4996485;28;20549;-60
2020/12/22 04:41:05;;;;;;;19.30;11.53;;;7.20;99.90;;;;;;4996209;28;20456;-60
2020/12/22 04:43:32;;;;;;;17.50;11.40;;;7.30;99.90;;;;;;4996471;28;20454;-61
2020/12/22 04:46:03;;;;;;;19.57;13.07;;;7.20;99.90;;;;;;4995888;28;20460;-59
2020/12/22 04:48:34;;;;;;;19.10;12.23;;;7.30;99.90;;;;;;4996444;28;20528;-59
2020/12/22 04:51:01;;;;;;;23.43;12.63;;;7.30;99.90;;;;;;4996019;28;20923;-59
2020/12/22 04:53:31;;;;;;;17.07;10.23;;;7.30;99.90;;;;;;4995938;28;20924;-57
2020/12/22 04:55:58;;;;;;;20.90;11.33;;;7.40;99.90;;;;;;4995857;28;20486;-58
2020/12/22 04:58:27;;;;;;;21.57;11.63;;;7.40;99.90;;;;;;4996044;28;20536;-57
2020/12/22 05:00:54;;;;;;;23.13;11.47;;;7.40;99.90;;;;;;4996180;28;20545;-58
2020/12/22 05:03:21;;;;;;;13.43;9.67;;;7.50;99.90;;;;;;4995596;28;20487;-58
2020/12/22 05:05:48;;;;;;;13.43;9.30;;;7.60;99.90;;;;;;4995674;28;20864;-51
2020/12/22 05:08:14;;;;;;;17.33;10.03;;;7.60;99.90;;;;;;4996098;28;20482;-62
2020/12/22 05:10:41;;;;;;;13.07;9.70;;;7.60;99.90;;;;;;4995841;28;20456;-62
2020/12/22 05:13:09;;;;;;;15.87;9.17;;;7.60;99.90;;;;;;4995989;28;20843;-64
2020/12/22 05:15:36;;;;;;;15.00;10.20;;;7.70;99.90;;;;;;4995762;28;20580;-63
2020/12/22 05:18:02;;;;;;;13.80;8.17;;;7.70;99.90;;;;;;4995983;28;20599;-63
2020/12/22 05:20:30;;;;;;;15.13;8.67;;;7.80;99.90;;;;;;4995508;28;20450;-63
2020/12/22 05:22:56;;;;;;;11.97;8.00;;;7.80;99.90;;;;;;4984484;28;20776;-63
2020/12/22 05:25:23;;;;;;;11.97;8.90;;;7.80;99.90;;;;;;4985837;28;20581;-62
2020/12/22 05:27:52;;;;;;;15.90;8.80;;;7.90;99.90;;;;;;4994326;28;20450;-64
2020/12/22 05:30:19;;;;;;;15.20;9.70;;;7.80;99.90;;;;;;4995305;28;20461;-61
2020/12/22 05:32:49;;;;;;;12.80;8.40;;;7.90;99.90;;;;;;4995290;28;20478;-63
2020/12/22 05:35:16;;;;;;;13.50;8.50;;;7.90;99.90;;;;;;4995698;28;20970;-61
2020/12/22 05:37:44;;;;;;;17.40;8.60;;;7.90;99.90;;;;;;4995174;28;20544;-62
2020/12/22 05:40:11;;;;;;;11.40;7.63;;;8.00;99.90;;;;;;4994981;28;20845;-62
2020/12/22 05:42:37;;;;;;;14.87;8.87;;;8.00;99.90;;;;;;4995464;28;20474;-62
2020/12/22 05:45:05;;;;;;;12.00;7.60;;;8.00;99.90;;;;;;4995433;28;21052;-62
2020/12/22 05:47:33;;;;;;;15.10;7.90;;;8.10;99.90;;;;;;4995025;28;20460;-61
2020/12/22 05:50:01;;;;;;;16.27;8.57;;;8.10;99.90;;;;;;4995196;28;20532;-62
2020/12/22 05:52:30;;;;;;;14.20;7.13;;;8.10;99.90;;;;;;4994838;28;20862;-63
2020/12/22 05:54:58;;;;;;;12.93;8.03;;;8.10;99.90;;;;;;4994973;28;20493;-62
2020/12/22 05:57:26;;;;;;;16.23;8.20;;;8.10;99.90;;;;;;4994881;28;20524;-63
2020/12/22 05:59:53;;;;;;;12.13;7.40;;;8.20;99.90;;;;;;4994986;28;20445;-63
2020/12/22 06:02:27;;;;;;;18.53;7.30;;;8.20;99.90;;;;;;4994932;28;20446;-63
2020/12/22 06:04:57;;;;;;;14.20;9.33;;;8.20;99.90;;;;;;4994568;28;20456;-62
2020/12/22 06:07:24;;;;;;;9.67;7.50;;;8.20;99.90;;;;;;4994759;28;20460;-62
2020/12/22 06:09:51;;;;;;;11.60;7.53;;;8.20;99.90;;;;;;4994753;28;20600;-62
2020/12/22 06:12:19;;;;;;;11.10;7.33;;;8.30;99.90;;;;;;4994955;28;20503;-62
2020/12/22 06:14:48;;;;;;;10.93;7.37;;;8.20;99.90;;;;;;4994520;28;21076;-62
2020/12/22 06:17:15;;;;;;;12.70;7.50;;;8.30;99.90;;;;;;4994835;28;20536;-63
2020/12/22 06:19:42;;;;;;;11.87;8.70;;;8.40;99.90;;;;;;4994884;28;20576;-62
2020/12/22 06:22:12;;;;;;;10.57;7.07;;;8.40;99.90;;;;;;4994793;28;20538;-63
2020/12/22 06:24:39;;;;;;;9.67;7.27;;;8.40;99.90;;;;;;4995902;28;20489;-64
2020/12/22 06:27:07;;;;;;;12.87;7.83;;;8.50;99.90;;;;;;4994642;28;20456;-64
2020/12/22 06:29:34;;;;;;;11.20;6.67;;;8.50;99.90;;;;;;4994939;28;20608;-62
2020/12/22 06:32:23;;;;;;;12.10;7.17;;;8.50;99.90;;;;;;4994914;28;20556;-65
2020/12/22 06:34:50;;;;;;;10.70;7.70;;;8.60;99.90;;;;;;4994473;28;20485;-62
2020/12/22 06:37:21;;;;;;;9.80;6.23;;;8.60;99.90;;;;;;4994455;28;20494;-61
2020/12/22 06:39:49;;;;;;;8.93;6.83;;;8.60;99.90;;;;;;4994900;28;20441;-62
2020/12/22 06:42:42;;;;;;;13.50;5.87;;;8.70;99.90;;;;;;4995454;28;20450;-62
2020/12/22 06:45:36;;;;;;;9.20;6.27;;;8.70;99.90;;;;;;4994891;28;20844;-62
2020/12/22 06:48:02;;;;;;;9.33;5.87;;;8.70;99.90;;;;;;4977090;28;20967;-63
2020/12/22 06:50:50;;;;;;;9.40;7.33;;;8.80;99.90;;;;;;4994422;28;20478;-62
2020/12/22 06:53:41;;;;;;;6.73;5.30;;;8.80;99.90;;;;;;4991485;28;20978;-63
2020/12/22 06:56:07;;;;;;;7.10;5.57;;;8.80;99.90;;;;;;4994083;28;20529;-63
2020/12/22 06:58:39;;;;;;;6.80;5.17;;;8.90;99.90;;;;;;4998091;28;20911;-62
2020/12/22 07:01:34;;;;;;;7.43;5.50;;;8.90;99.90;;;;;;4998030;28;20540;-62
2020/12/22 07:04:20;;;;;;;7.20;5.00;;;9.00;99.90;;;;;;4993460;28;20581;-62
2020/12/22 07:06:58;;;;;;;6.20;4.40;;;9.10;99.90;;;;;;4982842;28;20786;-62
2020/12/22 07:09:27;;;;;;;7.53;5.20;;;9.20;99.90;;;;;;4980918;28;20534;-62
2020/12/22 07:11:55;;;;;;;6.13;4.30;;;9.20;99.90;;;;;;4978939;28;20466;-61
2020/12/22 07:14:23;;;;;;;5.73;5.00;;;9.20;99.90;;;;;;4980338;28;20477;-60
2020/12/22 07:16:58;;;;;;;5.23;4.70;;;9.30;99.90;;;;;;4983671;28;20536;-61
2020/12/22 07:19:29;;;;;;;5.77;4.77;;;9.40;99.90;;;;;;5382165;23;20481;-61
2020/12/22 07:21:57;;;;;;;5.10;4.20;;;9.40;99.90;;;;;;4982757;28;20521;-61
2020/12/22 07:24:25;;;;;;;5.40;4.27;;;9.40;99.90;;;;;;4982450;28;20485;-59
2020/12/22 07:26:52;;;;;;;7.73;3.87;;;9.50;99.90;;;;;;4982909;28;20454;-60
2020/12/22 07:29:18;;;;;;;4.23;3.80;;;9.50;99.90;;;;;;4982913;28;20526;-61
2020/12/22 07:31:46;;;;;;;4.57;3.30;;;9.50;99.90;;;;;;4982633;28;20848;-60
2020/12/22 07:34:13;;;;;;;4.50;3.80;;;9.50;99.90;;;;;;4982253;28;20486;-61
2020/12/22 07:36:40;;;;;;;5.87;3.97;;;9.50;99.90;;;;;;4982045;28;20449;-60
2020/12/22 07:39:14;;;;;;;4.93;3.17;;;9.60;99.90;;;;;;4981209;28;20764;-60
2020/12/22 07:41:42;;;;;;;6.13;3.60;;;9.60;99.90;;;;;;4980242;28;20466;-61
2020/12/22 07:44:10;;;;;;;4.53;3.00;;;9.60;99.90;;;;;;4980045;28;20546;-61
2020/12/22 07:46:36;;;;;;;6.20;3.50;;;9.60;99.90;;;;;;4981081;28;20590;-61
2020/12/22 07:49:04;;;;;;;4.07;3.40;;;9.70;99.90;;;;;;4980158;28;20447;-61
2020/12/22 07:51:32;;;;;;;3.97;3.00;;;9.70;99.90;;;;;;4980629;28;20840;-60
2020/12/22 07:54:03;;;;;;;3.93;3.50;;;9.70;99.90;;;;;;4982177;28;20538;-60
2020/12/22 07:56:32;;;;;;;4.03;3.57;;;9.70;99.90;;;;;;4981959;28;20880;-60
2020/12/22 07:59:02;;;;;;;3.37;2.60;;;9.70;99.90;;;;;;4981940;28;20474;-61
2020/12/22 08:01:31;;;;;;;4.30;3.07;;;9.80;99.90;;;;;;4981831;28;20463;-61
2020/12/22 08:03:58;;;;;;;4.50;3.00;;;9.80;99.90;;;;;;4979633;28;20486;-62
2020/12/22 08:06:24;;;;;;;4.00;2.83;;;9.90;99.90;;;;;;4979502;28;20450;-62
2020/12/22 08:08:58;;;;;;;4.53;2.27;;;9.90;99.90;;;;;;4980418;28;20553;-62
2020/12/22 08:11:26;;;;;;;3.87;2.97;;;9.90;99.90;;;;;;4979029;28;20453;-61
2020/12/22 08:13:53;;;;;;;3.73;2.73;;;10.00;99.90;;;;;;4979185;28;20517;-61
2020/12/22 08:16:21;;;;;;;2.40;2.20;;;10.00;99.90;;;;;;4979586;28;20581;-62
2020/12/22 08:18:49;;;;;;;2.20;1.70;;;10.00;99.90;;;;;;4979055;28;20914;-63
2020/12/22 08:21:19;;;;;;;2.60;2.10;;;10.10;99.90;;;;;;4979227;28;20447;-62
2020/12/22 08:23:47;;;;;;;3.10;2.47;;;10.10;99.90;;;;;;4980047;28;20446;-63
2020/12/22 08:26:17;;;;;;;2.60;2.10;;;10.10;99.90;;;;;;4980051;28;20443;-62
2020/12/22 08:28:51;;;;;;;3.47;2.67;;;10.20;99.90;;;;;;4979652;28;20609;-61
2020/12/22 08:31:23;;;;;;;2.70;1.93;;;10.30;99.90;;;;;;4978989;28;20463;-63
2020/12/22 08:33:55;;;;;;;2.47;1.83;;;10.30;99.90;;;;;;4979011;28;20423;-62
2020/12/22 08:36:22;;;;;;;2.87;1.63;;;10.30;99.90;;;;;;4978781;28;20626;-63
2020/12/22 08:38:49;;;;;;;3.10;2.37;;;10.30;99.90;;;;;;4978425;28;20582;-63
2020/12/22 08:41:18;;;;;;;12.93;2.27;;;10.40;99.90;;;;;;4978580;28;20446;-63
2020/12/22 08:43:49;;;;;;;2.77;2.17;;;10.40;99.90;;;;;;4978602;28;20482;-64
2020/12/22 08:46:16;;;;;;;2.97;2.17;;;10.40;99.90;;;;;;4978408;28;20493;-63
2020/12/22 08:48:43;;;;;;;2.90;1.83;;;10.50;99.90;;;;;;4978241;28;20541;-63
2020/12/22 08:51:10;;;;;;;2.30;2.00;;;10.50;99.90;;;;;;4978182;28;20545;-63
2020/12/22 08:53:37;;;;;;;2.53;1.70;;;10.60;99.90;;;;;;4978573;28;20860;-63
2020/12/22 08:56:08;;;;;;;1.63;1.53;;;10.60;99.90;;;;;;4978597;28;20570;-64
2020/12/22 08:58:35;;;;;;;2.40;1.80;;;10.70;99.90;;;;;;4978400;28;20530;-63
2020/12/22 09:01:17;;;;;;;2.23;1.40;;;10.70;99.90;;;;;;4978072;28;20491;-64
2020/12/22 09:03:50;;;;;;;2.77;1.67;;;10.70;99.90;;;;;;4978416;28;20561;-64
2020/12/22 09:06:17;;;;;;;1.67;1.40;;;10.80;99.90;;;;;;4978391;28;20438;-64
2020/12/22 09:08:43;;;;;;;2.07;1.53;;;10.80;99.90;;;;;;4977687;28;20462;-65
2020/12/22 09:11:18;;;;;;;1.73;1.43;;;10.90;99.90;;;;;;4977989;28;20446;-65
2020/12/22 09:13:45;;;;;;;1.57;1.47;;;10.90;99.90;;;;;;4977647;28;20784;-65
2020/12/22 09:16:11;;;;;;;2.90;1.27;;;10.90;99.90;;;;;;4977360;28;20877;-65
2020/12/22 09:18:38;;;;;;;2.63;1.87;;;11.00;99.90;;;;;;4977802;28;20494;-65
2020/12/22 09:21:07;;;;;;;2.10;1.27;;;11.00;99.90;;;;;;4978553;28;20450;-65
2020/12/22 09:23:44;;;;;;;1.80;1.47;;;11.00;99.90;;;;;;4978154;28;20944;-66
2020/12/22 09:26:10;;;;;;;1.83;1.30;;;11.10;99.90;;;;;;4978461;28;20942;-65
2020/12/22 09:28:36;;;;;;;3.00;1.50;;;11.10;99.90;;;;;;4977703;28;20554;-66
2020/12/22 09:31:03;;;;;;;1.90;1.27;;;11.10;99.90;;;;;;4977421;28;20533;-66
2020/12/22 09:33:29;;;;;;;3.10;1.27;;;11.20;99.90;;;;;;4977713;28;20521;-66
2020/12/22 09:35:56;;;;;;;1.20;1.07;;;11.20;99.90;;;;;;4977399;28;20560;-65
2020/12/22 09:38:23;;;;;;;2.27;1.50;;;11.20;99.90;;;;;;4977087;28;20463;-65
2020/12/22 09:40:49;;;;;;;3.20;1.37;;;11.30;99.90;;;;;;4977215;28;20533;-67
2020/12/22 09:43:16;;;;;;;2.13;1.87;;;11.30;99.90;;;;;;4977189;28;20829;-65
2020/12/22 09:45:42;;;;;;;18.10;9.77;;;11.30;99.90;;;;;;4976786;28;20465;-65
2020/12/22 09:48:08;;;;;;;2.00;1.50;;;11.30;99.90;;;;;;4977383;28;20514;-66
2020/12/22 09:50:35;;;;;;;4.10;1.70;;;11.40;99.90;;;;;;4976823;28;21069;-66
2020/12/22 09:53:01;;;;;;;6.00;1.33;;;11.40;99.90;;;;;;4976649;28;20457;-65
2020/12/22 09:55:29;;;;;;;2.13;1.23;;;11.50;99.90;;;;;;4976659;28;20698;-65
2020/12/22 09:57:55;;;;;;;1.37;1.20;;;11.60;99.90;;;;;;4976880;28;20530;-66
2020/12/22 10:00:21;;;;;;;1.67;1.10;;;11.60;99.90;;;;;;4976511;28;20846;-66
2020/12/22 10:02:48;;;;;;;2.03;1.00;;;11.60;99.90;;;;;;4976655;28;20906;-66
2020/12/22 10:05:14;;;;;;;2.20;1.20;;;11.70;99.90;;;;;;4977324;28;20457;-67
2020/12/22 10:07:40;;;;;;;2.13;1.43;;;11.70;99.90;;;;;;4976410;28;20550;-67
2020/12/22 10:10:07;;;;;;;1.93;1.40;;;11.70;99.90;;;;;;4976293;28;20477;-66
2020/12/22 10:12:34;;;;;;;2.60;1.63;;;11.80;99.90;;;;;;4977096;28;20458;-67
2020/12/22 10:15:00;;;;;;;3.43;1.20;;;11.80;99.90;;;;;;4959357;28;20514;-67
2020/12/22 10:17:29;;;;;;;1.70;1.50;;;11.80;99.90;;;;;;4976772;28;20493;-68
2020/12/22 10:19:56;;;;;;;1.43;1.27;;;11.80;99.90;;;;;;4976745;28;20478;-68
2020/12/22 10:22:23;;;;;;;2.37;1.63;;;11.80;99.90;;;;;;4976325;28;20541;-68
2020/12/22 10:24:49;;;;;;;1.50;1.03;;;11.80;99.90;;;;;;4976589;28;20510;-68
2020/12/22 10:27:16;;;;;;;1.03;0.90;;;11.80;99.90;;;;;;4980260;28;20840;-67
2020/12/22 10:29:43;;;;;;;1.53;1.20;;;11.80;99.90;;;;;;4980896;28;20486;-67
2020/12/22 10:32:09;;;;;;;1.57;1.03;;;11.90;99.90;;;;;;4980519;28;20541;-68
2020/12/22 10:34:36;;;;;;;1.17;0.90;;;11.90;99.90;;;;;;4980606;28;20583;-69
2020/12/22 10:37:03;;;;;;;3.10;1.33;;;11.90;99.90;;;;;;4980517;28;20510;-70
2020/12/22 10:39:29;;;;;;;1.20;0.80;;;11.90;99.90;;;;;;4980477;28;20474;-68
2020/12/22 10:41:56;;;;;;;2.37;1.00;;;11.90;99.90;;;;;;4980312;28;20550;-68
2020/12/22 10:44:22;;;;;;;9.03;1.77;;;12.00;99.90;;;;;;4979832;28;20546;-68
2020/12/22 10:46:50;;;;;;;1.67;1.20;;;12.00;99.90;;;;;;4980235;28;20549;-67
2020/12/22 10:49:16;;;;;;;3.03;1.70;;;12.00;99.90;;;;;;4980050;28;20533;-67
2020/12/22 10:51:43;;;;;;;1.73;1.63;;;11.90;99.90;;;;;;4980276;28;20533;-68
2020/12/22 10:54:09;;;;;;;1.60;1.50;;;12.00;99.90;;;;;;4980255;28;20467;-67
2020/12/22 10:56:35;;;;;;;2.20;1.20;;;12.00;99.90;;;;;;4980082;28;20987;-68
2020/12/22 10:59:02;;;;;;;1.93;1.53;;;12.00;99.90;;;;;;4980180;28;20446;-68
2020/12/22 11:01:28;;;;;;;2.67;1.10;;;12.10;99.90;;;;;;4979834;28;20450;-67
2020/12/22 11:03:56;;;;;;;2.93;1.50;;;12.20;99.90;;;;;;4981009;28;20502;-68
2020/12/22 11:06:39;;;;;;;1.40;1.27;;;12.20;99.90;;;;;;4980203;28;20453;-68
2020/12/22 11:09:05;;;;;;;1.67;1.17;;;12.20;99.90;;;;;;4979285;28;20878;-68
2020/12/22 11:11:31;;;;;;;2.07;1.20;;;12.20;99.90;;;;;;4979976;28;20579;-67
2020/12/22 11:13:58;;;;;;;1.10;1.00;;;12.20;99.90;;;;;;4979412;28;20537;-69
2020/12/22 11:16:25;;;;;;;2.53;1.23;;;12.30;99.90;;;;;;4980060;28;20947;-68
2020/12/22 11:18:51;;;;;;;1.43;1.00;;;12.30;99.90;;;;;;4980312;28;20481;-68
2020/12/22 11:21:20;;;;;;;1.37;0.90;;;12.30;99.90;;;;;;4979617;28;20978;-68
2020/12/22 11:23:46;;;;;;;1.70;1.07;;;12.30;99.90;;;;;;4979813;28;20463;-68
2020/12/22 11:26:17;;;;;;;2.07;1.10;;;12.40;99.90;;;;;;4979770;28;20529;-68
2020/12/22 11:28:43;;;;;;;1.80;1.20;;;12.40;99.90;;;;;;4979414;28;20497;-69
2020/12/22 11:31:10;;;;;;;1.13;1.03;;;12.40;99.90;;;;;;4979212;28;20467;-68
2020/12/22 11:33:37;;;;;;;1.30;1.07;;;12.50;99.90;;;;;;4979619;28;20457;-69
2020/12/22 11:36:04;;;;;;;1.40;1.30;;;12.50;99.90;;;;;;4979229;28;20548;-68
2020/12/22 11:38:31;;;;;;;1.50;1.10;;;12.50;99.90;;;;;;4978362;28;20470;-68
2020/12/22 11:40:58;;;;;;;1.60;1.30;;;12.60;99.90;;;;;;4979485;28;20479;-68
2020/12/22 11:43:24;;;;;;;3.00;1.70;;;12.60;99.90;;;;;;4979162;28;20974;-69
2020/12/22 11:45:50;;;;;;;1.80;1.40;;;12.70;99.90;;;;;;4979310;28;20534;-68
2020/12/22 11:48:17;;;;;;;1.93;1.30;;;12.70;99.90;;;;;;4979443;28;20542;-67
2020/12/22 11:50:43;;;;;;;2.13;1.70;;;12.70;99.90;;;;;;4979290;28;20916;-68
2020/12/22 11:53:10;;;;;;;1.97;1.53;;;12.80;99.90;;;;;;4978923;28;20473;-68
2020/12/22 11:55:37;;;;;;;2.30;1.70;;;12.80;99.90;;;;;;4978724;28;20486;-68
2020/12/22 11:58:04;;;;;;;1.37;1.23;;;12.80;99.90;;;;;;4979072;28;20537;-68
2020/12/22 12:00:30;;;;;;;1.90;1.40;;;12.80;99.90;;;;;;4979081;28;20988;-68
2020/12/22 12:02:57;;;;;;;2.47;1.77;;;12.90;99.90;;;;;;4978817;28;20451;-68
2020/12/22 12:05:23;;;;;;;4.03;1.50;;;12.80;99.90;;;;;;4978533;28;20529;-68
2020/12/22 12:07:49;;;;;;;2.80;2.23;;;12.90;99.90;;;;;;4978347;28;20462;-68
2020/12/22 12:10:16;;;;;;;1.90;1.30;;;12.90;99.90;;;;;;4979022;28;20820;-68
2020/12/22 12:12:43;;;;;;;1.60;1.50;;;12.90;99.90;;;;;;4978644;28;20756;-68
2020/12/22 12:15:10;;;;;;;1.33;1.20;;;13.00;99.90;;;;;;4978366;28;20574;-69
2020/12/22 12:17:38;;;;;;;1.63;1.30;;;13.00;99.90;;;;;;4978690;28;20547;-68
2020/12/22 12:20:05;;;;;;;3.93;1.27;;;13.10;99.90;;;;;;4978292;28;20494;-68
2020/12/22 12:22:32;;;;;;;1.10;1.00;;;13.20;99.90;;;;;;4978610;28;21039;-68
2020/12/22 12:24:59;;;;;;;1.70;1.37;;;13.30;99.90;;;;;;4979110;28;20453;-68
2020/12/22 12:27:25;;;;;;;1.67;1.13;;;13.30;99.90;;;;;;4978599;28;20832;-68
2020/12/22 12:29:53;;;;;;;1.60;1.17;;;13.40;99.90;;;;;;4978371;28;20529;-68
2020/12/22 12:32:26;;;;;;;2.70;1.13;;;13.40;99.90;;;;;;4978133;28;20811;-68
2020/12/22 12:34:52;;;;;;;1.50;1.20;;;13.40;99.90;;;;;;4977848;28;20435;-69
2020/12/22 12:37:18;;;;;;;2.37;1.40;;;13.40;99.90;;;;;;4977621;28;20501;-69
2020/12/22 12:39:45;;;;;;;1.60;1.40;;;13.50;99.90;;;;;;4977909;28;20967;-68
2020/12/22 12:42:11;;;;;;;2.97;1.00;;;13.50;99.90;;;;;;4978079;28;20877;-68
2020/12/22 12:44:38;;;;;;;2.43;1.33;;;13.50;99.90;;;;;;4977722;28;20482;-68
2020/12/22 12:47:05;;;;;;;4.70;1.53;;;13.50;99.90;;;;;;4977659;28;20532;-68
2020/12/22 12:49:31;;;;;;;1.53;1.10;;;13.50;99.90;;;;;;4976804;28;20486;-68
2020/12/22 12:51:58;;;;;;;1.20;1.07;;;13.50;99.90;;;;;;4978674;28;20458;-68